createdAt,value
2022-07-25T00:04:09.720Z,-0.73
2022-07-25T00:09:17.174Z,-0.42
2022-07-25T00:14:20.255Z,-0.03
2022-07-25T00:19:23.486Z,-0.29
2022-07-25T00:24:28.549Z,-0.21
2022-07-25T00:29:31.803Z,-0.32
2022-07-25T00:34:35.275Z,-0.38
2022-07-25T00:39:39.954Z,-0.38
2022-07-25T00:44:43.205Z,-0.02
2022-07-25T00:49:46.835Z,-0.14
2022-07-25T00:54:51.783Z,-0.24
2022-07-25T00:59:55.212Z,-0.39
2022-07-25T01:04:59.964Z,-0.51
2022-07-25T01:10:06.294Z,-0.16
2022-07-25T01:15:10.804Z,-0.05
2022-07-25T01:20:17.099Z,0.11
2022-07-25T01:25:20.752Z,-0.08
2022-07-25T01:30:25.148Z,-0.27
2022-07-25T01:35:30.001Z,-0.12
2022-07-25T01:40:33.552Z,-0.13
2022-07-25T01:45:36.973Z,0.16
2022-07-25T01:50:42.143Z,-0.30
2022-07-25T01:55:46.027Z,0.06
2022-07-25T02:00:49.723Z,-0.04
2022-07-25T02:05:54.283Z,-0.04
2022-07-25T02:10:57.817Z,0.11
2022-07-25T02:16:01.121Z,0.15
2022-07-25T02:21:14.440Z,0.46
2022-07-25T02:26:18.060Z,0.07
2022-07-25T02:31:21.391Z,0.26
2022-07-25T02:36:27.135Z,0.33
2022-07-25T02:41:30.636Z,0.36
2022-07-25T02:46:34.059Z,0.28
2022-07-25T02:51:38.821Z,0.32
2022-07-25T02:56:42.011Z,0.37
2022-07-25T03:01:45.228Z,0.52
2022-07-25T03:06:50.264Z,0.42
2022-07-25T03:11:53.569Z,0.26
2022-07-25T03:16:56.874Z,0.51
2022-07-25T03:22:01.906Z,0.79
2022-07-25T03:27:05.177Z,0.42
2022-07-25T03:32:09.099Z,0.39
2022-07-25T03:37:13.677Z,0.52
2022-07-25T03:42:17.482Z,0.55
2022-07-25T03:47:21.011Z,0.43
2022-07-25T03:52:26.124Z,0.46
2022-07-25T03:57:29.371Z,0.29
2022-07-25T04:02:32.601Z,0.29
2022-07-25T04:07:38.803Z,0.30
2022-07-25T04:12:42.054Z,0.42
2022-07-25T04:17:45.228Z,-0.17
2022-07-25T04:22:50.117Z,-0.19
2022-07-25T04:27:53.402Z,-0.54
2022-07-25T04:32:56.966Z,-0.37
2022-07-25T04:38:01.839Z,-0.94
2022-07-25T04:43:05.609Z,-0.87
2022-07-25T04:48:08.843Z,-1.41
2022-07-25T04:53:13.499Z,-1.60
2022-07-25T04:58:16.805Z,-1.97
2022-07-25T05:03:19.804Z,-2.15
2022-07-25T05:08:24.351Z,-2.56
2022-07-25T05:13:27.386Z,-3.70
2022-07-25T05:18:30.633Z,-5.35
2022-07-25T05:23:35.346Z,118.91
2022-07-25T05:28:38.575Z,118.01
2022-07-25T05:33:42.823Z,117.60
2022-07-25T05:38:47.510Z,117.26
2022-07-25T05:43:50.864Z,116.22
2022-07-25T05:48:53.958Z,115.84
2022-07-25T05:53:58.425Z,115.44
2022-07-25T05:59:02.111Z,114.74
2022-07-25T06:04:05.753Z,115.17
2022-07-25T06:09:21.640Z,115.57
2022-07-25T06:14:24.890Z,114.16
2022-07-25T06:19:28.315Z,114.02
2022-07-25T06:24:32.843Z,113.71
2022-07-25T06:29:36.080Z,113.71
2022-07-25T06:34:39.329Z,113.20
2022-07-25T06:39:45.882Z,114.34
2022-07-25T06:44:49.225Z,112.97
2022-07-25T06:49:52.329Z,114.19
2022-07-25T06:54:57.021Z,113.65
2022-07-25T07:00:00.416Z,112.23
2022-07-25T07:05:03.535Z,111.72
2022-07-25T07:10:09.425Z,112.29
2022-07-25T07:15:13.053Z,111.47
2022-07-25T07:20:16.671Z,111.37
2022-07-25T07:25:21.807Z,111.27
2022-07-25T07:30:37.647Z,110.42
2022-07-25T07:35:48.385Z,111.78
2022-07-25T07:40:53.054Z,110.70
2022-07-25T07:45:57.165Z,109.88
2022-07-25T07:51:02.097Z,110.06
2022-07-25T07:56:07.429Z,110.24
2022-07-25T08:01:10.316Z,108.56
2022-07-25T08:06:13.695Z,110.65
2022-07-25T08:11:18.226Z,110.67
2022-07-25T08:16:22.849Z,111.52
2022-07-25T08:21:26.018Z,110.95
2022-07-25T08:26:33.932Z,110.36
2022-07-25T08:31:36.991Z,109.06
2022-07-25T08:36:40.121Z,109.61
2022-07-25T08:41:44.714Z,108.91
2022-07-25T08:46:49.330Z,109.36
2022-07-25T08:51:52.671Z,108.01
2022-07-25T08:56:57.588Z,106.38
2022-07-25T09:02:02.831Z,106.85
2022-07-25T09:07:08.593Z,106.11
2022-07-25T09:12:13.173Z,106.12
2022-07-25T09:17:22.596Z,106.85
2022-07-25T09:22:28.141Z,106.90
2022-07-25T09:27:34.895Z,106.30
2022-07-25T09:32:37.938Z,105.56
2022-07-25T09:37:41.318Z,104.73
2022-07-25T09:42:51.827Z,107.06
2022-07-25T09:47:57.832Z,105.18
2022-07-25T09:53:02.814Z,104.40
2022-07-25T09:58:07.563Z,104.93
2022-07-25T10:03:29.771Z,103.23
2022-07-25T10:08:37.012Z,104.97
2022-07-25T10:13:41.805Z,106.26
2022-07-25T10:18:50.180Z,107.02
2022-07-25T10:24:01.883Z,106.42
2022-07-25T10:29:11.418Z,108.03
2022-07-25T10:34:14.695Z,105.77
2022-07-25T10:39:20.004Z,105.85
2022-07-25T10:44:27.675Z,104.36
2022-07-25T10:49:36.665Z,101.61
2022-07-25T10:54:39.778Z,103.72
2022-07-25T10:59:44.545Z,98.62
2022-07-25T11:04:59.651Z,101.06
2022-07-25T11:10:05.886Z,101.39
2022-07-25T11:15:17.121Z,99.85
2022-07-25T11:20:20.720Z,101.57
2022-07-25T11:25:24.038Z,99.35
2022-07-25T11:30:32.714Z,99.26
2022-07-25T11:35:35.698Z,96.84
2022-07-25T11:40:44.318Z,100.00
2022-07-25T11:45:57.527Z,95.68
2022-07-25T11:51:13.618Z,100.56
2022-07-25T11:56:41.419Z,95.28
2022-07-25T12:01:45.747Z,92.10
2022-07-25T12:06:50.498Z,95.22
2022-07-25T12:12:03.235Z,98.00
2022-07-25T12:17:08.134Z,95.17
2022-07-25T12:22:11.174Z,93.05
2022-07-25T12:27:14.948Z,91.97
2022-07-25T12:32:19.594Z,90.79
2022-07-25T12:37:22.692Z,96.44
2022-07-25T12:42:26.392Z,90.53
2022-07-25T12:47:31.029Z,92.98
2022-07-25T12:52:34.342Z,88.25
2022-07-25T12:57:38.093Z,87.76
2022-07-25T13:02:43.376Z,89.67
2022-07-25T13:07:47.798Z,93.31
2022-07-25T13:12:50.875Z,90.81
2022-07-25T13:17:55.793Z,89.40
2022-07-25T13:22:58.779Z,95.91
2022-07-25T13:28:03.221Z,88.80
2022-07-25T13:33:09.179Z,90.75
2022-07-25T13:38:12.472Z,93.72
2022-07-25T13:43:15.713Z,88.15
2022-07-25T13:48:29.362Z,92.42
2022-07-25T13:53:33.486Z,89.92
2022-07-25T13:58:36.548Z,90.92
2022-07-25T14:03:41.611Z,89.62
2022-07-25T14:08:45.946Z,93.96
2022-07-25T14:13:49.011Z,86.48
2022-07-25T14:18:55.241Z,87.13
2022-07-25T14:23:58.341Z,94.35
2022-07-25T14:29:03.380Z,88.97
2022-07-25T14:34:08.319Z,85.07
2022-07-25T14:39:11.396Z,86.01
2022-07-25T14:44:14.313Z,81.78
2022-07-25T14:49:19.054Z,82.48
2022-07-25T14:54:22.493Z,81.84
2022-07-25T14:59:25.945Z,81.43
2022-07-25T15:04:30.407Z,81.39
2022-07-25T15:09:33.497Z,82.61
2022-07-25T15:14:36.918Z,79.66
2022-07-25T15:19:41.425Z,80.86
2022-07-25T15:25:17.967Z,79.69
2022-07-25T15:30:08.450Z,79.49
2022-07-25T15:35:13.023Z,81.34
2022-07-25T15:40:16.364Z,77.08
2022-07-25T15:45:36.728Z,76.15
2022-07-25T15:50:43.458Z,76.73
2022-07-25T15:55:46.610Z,79.99
2022-07-25T16:00:50.111Z,76.24
2022-07-25T16:05:56.898Z,80.01
2022-07-25T16:11:00.397Z,77.95
2022-07-25T16:16:03.807Z,80.49
2022-07-25T16:21:08.582Z,80.48
2022-07-25T16:26:12.611Z,78.95
2022-07-25T16:31:16.874Z,82.62
2022-07-25T16:36:21.765Z,75.18
2022-07-25T16:41:25.540Z,77.24
2022-07-25T16:46:28.838Z,68.75
2022-07-25T16:51:36.988Z,67.73
2022-07-25T16:56:40.902Z,65.34
2022-07-25T17:01:47.143Z,65.05
2022-07-25T17:06:52.337Z,63.39
2022-07-25T17:11:55.786Z,65.63
2022-07-25T17:16:59.245Z,69.85
2022-07-25T17:22:03.932Z,71.95
2022-07-25T17:27:07.067Z,75.67
2022-07-25T17:32:10.573Z,76.78
2022-07-25T17:37:15.418Z,80.88
2022-07-25T17:42:22.660Z,80.41
2022-07-25T17:47:25.796Z,85.82
2022-07-25T17:52:30.709Z,84.34
2022-07-25T17:57:34.034Z,89.41
2022-07-25T18:02:37.641Z,88.95
2022-07-25T18:07:45.525Z,89.96
2022-07-25T18:12:49.115Z,92.93
2022-07-25T18:17:53.127Z,94.32
2022-07-25T18:22:58.988Z,97.02
2022-07-25T18:28:02.553Z,98.31
2022-07-25T18:33:05.978Z,102.68
2022-07-25T18:38:12.026Z,104.12
2022-07-25T18:43:15.275Z,99.74
2022-07-25T18:48:19.219Z,101.77
2022-07-25T18:53:25.389Z,103.24
2022-07-25T18:58:28.412Z,106.33
2022-07-25T19:03:34.255Z,108.17
2022-07-25T19:08:38.911Z,103.95
2022-07-25T19:13:50.978Z,104.04
2022-07-25T19:18:54.890Z,106.46
2022-07-25T19:23:59.489Z,106.50
2022-07-25T19:29:06.014Z,104.92
2022-07-25T19:34:09.486Z,104.06
2022-07-25T19:39:15.195Z,104.15
2022-07-25T19:44:18.342Z,104.83
2022-07-25T19:49:22.677Z,104.73
2022-07-25T19:54:27.283Z,106.21
2022-07-25T19:59:30.322Z,107.69
2022-07-25T20:04:33.407Z,108.46
2022-07-25T20:09:37.904Z,107.17
2022-07-25T20:14:40.885Z,108.02
2022-07-25T20:19:44.482Z,109.33
2022-07-25T20:24:49.182Z,109.45
2022-07-25T20:29:52.258Z,109.49
2022-07-25T20:34:56.093Z,110.00
2022-07-25T20:40:00.944Z,110.39
2022-07-25T20:45:04.429Z,110.23
2022-07-25T20:50:09.863Z,110.31
2022-07-25T20:55:14.600Z,111.23
2022-07-25T21:00:17.965Z,110.91
2022-07-25T21:05:21.207Z,111.43
2022-07-25T21:10:26.543Z,111.78
2022-07-25T21:15:31.153Z,112.37
2022-07-25T21:20:34.473Z,113.19
2022-07-25T21:25:39.149Z,113.18
2022-07-25T21:30:42.941Z,114.58
2022-07-25T21:35:52.831Z,115.00
2022-07-25T21:40:59.150Z,115.76
2022-07-25T21:46:02.159Z,116.43
2022-07-25T21:51:07.731Z,117.03
2022-07-25T21:56:12.439Z,117.94
2022-07-25T22:01:15.656Z,117.76
2022-07-25T22:06:19.562Z,118.39
2022-07-25T22:11:42.880Z,118.24
2022-07-25T22:16:47.791Z,117.84
2022-07-25T22:21:51.293Z,118.53
2022-07-25T22:26:56.050Z,118.76
2022-07-25T22:31:59.860Z,117.91
2022-07-25T22:37:03.577Z,118.15
2022-07-25T22:42:08.764Z,118.01
2022-07-25T22:47:11.938Z,117.57
2022-07-25T22:52:14.938Z,117.79
2022-07-25T22:57:19.577Z,118.67
2022-07-25T23:02:22.769Z,118.24
2022-07-25T23:07:26.159Z,118.59
2022-07-25T23:12:30.626Z,-5.65
2022-07-25T23:17:33.844Z,-5.56
2022-07-25T23:22:37.259Z,-5.39
2022-07-25T23:27:41.792Z,-5.76
2022-07-25T23:32:44.913Z,118.98
2022-07-25T23:37:48.047Z,-5.41
2022-07-25T23:42:53.061Z,-5.12
2022-07-25T23:47:56.732Z,-4.87
2022-07-25T23:52:59.921Z,-4.57
2022-07-25T23:58:04.695Z,-4.79
